Time;durP1;ratioP1;P1;durP2;ratioP2;P2;SDS_P1;SDS_P2;PMS_P1;PMS_P2;Temp;Humidity;BMP_temperature;BMP_pressure;BME280_temperature;BME280_humidity;BME280_pressure;Samples;Min_cycle;Max_cycle;Signal;HPM_P1;HPM_P2
2024/02/22 00:02:19;;;;;;;5.30;3.00;;;;;;;1.17;87.18;95222.56;5024364;28;20503;-72
2024/02/22 00:04:45;;;;;;;5.82;2.95;;;;;;;1.29;86.58;95238.28;4977448;28;20042;-72
2024/02/22 00:07:14;;;;;;;4.85;2.90;;;;;;;1.30;86.37;95234.81;4993474;28;20034;-72
2024/02/22 00:09:40;;;;;;;4.75;3.00;;;;;;;1.41;86.22;95233.56;5011190;28;20038;-72
2024/02/22 00:12:05;;;;;;;4.50;2.80;;;;;;;1.32;86.21;95216.84;4993514;28;20109;-72
2024/02/22 00:14:34;;;;;;;5.07;3.03;;;;;;;1.27;86.24;95229.84;4996828;28;20120;-72
2024/02/22 00:16:59;;;;;;;5.72;2.83;;;;;;;0.95;86.55;95187.63;4996816;28;20095;-72
2024/02/22 00:19:25;;;;;;;4.60;2.70;;;;;;;1.18;86.59;95225.09;5012825;28;20034;-72
2024/02/22 00:21:51;;;;;;;5.88;3.55;;;;;;;1.18;86.69;95209.72;5013006;28;20041;-72
2024/02/22 00:24:16;;;;;;;6.00;3.30;;;;;;;1.23;86.88;95220.63;5028911;28;20025;-72
2024/02/22 00:26:42;;;;;;;6.15;3.22;;;;;;;1.27;86.37;95219.59;5030522;28;20022;-72
2024/02/22 00:29:07;;;;;;;5.40;3.13;;;;;;;1.24;85.92;95209.47;4996383;28;20519;-72
2024/02/22 00:31:33;;;;;;;4.78;3.03;;;;;;;1.38;85.68;95205.53;5030436;28;20405;-72
2024/02/22 00:33:58;;;;;;;5.78;3.38;;;;;;;1.36;86.07;95218.38;5009652;28;20029;-72
2024/02/22 00:36:25;;;;;;;5.75;3.40;;;;;;;1.47;85.45;95205.97;5030187;28;20435;-72
2024/02/22 00:38:50;;;;;;;5.95;4.03;;;;;;;1.35;86.40;95206.50;4995124;28;20124;-72
2024/02/22 00:41:16;;;;;;;5.72;3.78;;;;;;;1.44;85.88;95212.97;4992948;28;20675;-72
2024/02/22 00:43:41;;;;;;;5.80;3.55;;;;;;;1.37;85.46;95194.47;5012687;28;20427;-72
2024/02/22 00:46:07;;;;;;;5.25;3.17;;;;;;;1.39;85.91;95186.72;4987383;28;20484;-72
2024/02/22 00:48:32;;;;;;;4.50;3.05;;;;;;;1.53;85.01;95199.78;5010922;28;20049;-72
2024/02/22 00:50:57;;;;;;;5.35;3.30;;;;;;;1.32;86.57;95202.31;4993151;28;20034;-71
2024/02/22 00:53:23;;;;;;;4.47;3.28;;;;;;;1.18;87.14;95181.56;4993096;28;20033;-71
2024/02/22 00:55:48;;;;;;;5.38;3.40;;;;;;;1.18;87.22;95179.03;5027307;28;20487;-72
2024/02/22 00:58:14;;;;;;;5.70;3.85;;;;;;;1.20;87.39;95187.47;5012611;28;20037;-72
2024/02/22 01:00:39;;;;;;;6.47;4.57;;;;;;;1.14;86.88;95172.34;5009720;28;20032;-72
2024/02/22 01:03:05;;;;;;;7.25;4.18;;;;;;;1.37;86.72;95184.22;5030422;28;20423;-71
2024/02/22 01:05:30;;;;;;;7.05;3.50;;;;;;;1.43;86.63;95178.84;4999891;28;20494;-72
2024/02/22 01:07:56;;;;;;;5.68;3.38;;;;;;;1.23;86.68;95156.63;4999342;28;20091;-72
2024/02/22 01:10:21;;;;;;;5.07;3.22;;;;;;;1.32;87.40;95181.03;5015156;28;20034;-71
2024/02/22 01:12:47;;;;;;;5.45;3.20;;;;;;;1.40;86.70;95165.34;5032025;28;20484;-72
2024/02/22 01:15:13;;;;;;;5.50;3.15;;;;;;;1.42;86.28;95161.84;4999442;28;20037;-72
2024/02/22 01:17:38;;;;;;;6.10;3.22;;;;;;;1.33;85.86;95165.59;5014115;28;20037;-72
2024/02/22 01:20:04;;;;;;;5.88;3.20;;;;;;;1.24;86.90;95160.84;5033743;28;20499;-72
2024/02/22 01:22:30;;;;;;;5.03;2.90;;;;;;;1.23;86.47;95154.06;5015784;28;20508;-72
2024/02/22 01:24:55;;;;;;;4.68;2.72;;;;;;;1.25;86.68;95159.13;5015814;28;20041;-71
2024/02/22 01:27:20;;;;;;;4.65;2.97;;;;;;;1.28;85.80;95153.88;5032130;28;20025;-71
2024/02/22 01:29:46;;;;;;;4.50;2.63;;;;;;;1.28;86.66;95164.97;4999217;28;20033;-72
2024/02/22 01:32:11;;;;;;;5.75;3.00;;;;;;;1.36;83.91;95145.88;5015644;28;20022;-71
2024/02/22 01:34:37;;;;;;;5.15;3.20;;;;;;;1.41;83.81;95149.09;5033323;28;20407;-72
2024/02/22 01:37:02;;;;;;;5.00;3.03;;;;;;;1.41;83.10;95159.31;5031517;28;20076;-71
2024/02/22 01:39:28;;;;;;;4.50;2.90;;;;;;;1.34;82.86;95135.72;5033143;28;20057;-72
2024/02/22 01:41:53;;;;;;;4.43;3.15;;;;;;;1.41;83.29;95154.22;5002455;28;20040;-72
2024/02/22 01:44:18;;;;;;;5.40;3.38;;;;;;;1.36;83.88;95135.63;4979338;28;20496;-72
2024/02/22 01:46:44;;;;;;;9.88;5.30;;;;;;;1.30;84.45;95137.56;4996053;28;20026;-72
2024/02/22 01:49:09;;;;;;;14.95;8.70;;;;;;;1.28;84.63;95149.59;4980358;28;20083;-71
2024/02/22 01:51:34;;;;;;;19.73;10.07;;;;;;;1.31;83.98;95130.72;5032903;28;20110;-72
2024/02/22 01:54:00;;;;;;;11.75;6.85;;;;;;;1.29;83.78;95148.69;4981025;28;20040;-72
2024/02/22 01:56:26;;;;;;;9.07;5.47;;;;;;;0.99;84.72;95155.06;4998745;28;20029;-71
2024/02/22 01:58:51;;;;;;;9.07;5.45;;;;;;;0.94;85.79;95139.88;4999211;28;20539;-72
2024/02/22 02:01:19;;;;;;;5.90;4.25;;;;;;;1.09;84.05;95130.78;4998926;28;20041;-71
2024/02/22 02:03:45;;;;;;;6.25;4.15;;;;;;;0.82;83.39;95087.50;5010711;28;20147;-72
2024/02/22 02:06:10;;;;;;;7.63;5.05;;;;;;;0.96;83.97;95130.44;4995449;28;20176;-72
2024/02/22 02:08:36;;;;;;;7.78;4.40;;;;;;;0.64;85.51;95091.63;5012853;28;20026;-71
2024/02/22 02:11:02;;;;;;;8.60;5.05;;;;;;;0.92;85.35;95141.69;4995216;28;20034;-72
2024/02/22 02:13:28;;;;;;;7.32;4.57;;;;;;;0.99;86.13;95139.72;5005713;28;20049;-72
2024/02/22 02:15:53;;;;;;;7.78;4.63;;;;;;;0.92;85.85;95130.59;4994356;28;20091;-71
2024/02/22 02:18:19;;;;;;;7.53;4.80;;;;;;;0.95;85.51;95130.47;5012689;28;20026;-71
2024/02/22 02:20:58;;;;;;;7.65;4.35;;;;;;;0.80;85.16;95126.81;5012947;28;20381;-71
2024/02/22 02:23:54;;;;;;;6.68;3.72;;;;;;;0.87;85.16;95123.97;5013986;28;20033;-71
2024/02/22 02:26:20;;;;;;;11.88;5.55;;;;;;;0.76;84.52;95118.44;5014845;28;20033;-71
2024/02/22 02:28:45;;;;;;;13.57;5.53;;;;;;;0.55;85.60;95124.38;4998418;28;20032;-71
2024/02/22 02:31:10;;;;;;;10.75;5.13;;;;;;;0.61;86.74;95130.13;4997242;28;20025;-71
2024/02/22 02:33:36;;;;;;;11.43;5.72;;;;;;;0.33;86.30;95076.63;5012577;28;20029;-71
2024/02/22 02:36:01;;;;;;;9.00;5.53;;;;;;;0.40;86.55;95124.09;5014247;28;20107;-71
2024/02/22 02:38:27;;;;;;;11.98;6.55;;;;;;;0.39;86.98;95112.22;5032030;28;20022;-71
2024/02/22 02:40:52;;;;;;;11.68;6.78;;;;;;;0.36;86.71;95104.66;5010234;28;20041;-71
2024/02/22 02:43:17;;;;;;;13.70;6.78;;;;;;;0.32;86.68;95115.88;5009582;28;20029;-71
2024/02/22 02:45:43;;;;;;;14.57;8.18;;;;;;;0.27;86.96;95115.22;5013276;28;20034;-71
2024/02/22 02:48:08;;;;;;;14.73;7.28;;;;;;;0.40;86.31;95125.81;5029000;28;20552;-71
2024/02/22 02:50:34;;;;;;;11.80;5.82;;;;;;;0.43;86.97;95118.84;5031694;28;20042;-71
2024/02/22 02:52:59;;;;;;;9.20;5.20;;;;;;;0.20;87.61;95117.19;5031786;28;20048;-71
2024/02/22 02:55:25;;;;;;;10.75;5.43;;;;;;;0.23;87.62;95123.91;5031841;28;20036;-71
2024/02/22 02:57:51;;;;;;;9.27;5.18;;;;;;;0.18;88.03;95118.13;5012879;28;20029;-71
2024/02/22 03:00:17;;;;;;;14.52;6.88;;;;;;;0.22;87.65;95120.53;5014188;28;20037;-71
2024/02/22 03:02:42;;;;;;;12.48;6.40;;;;;;;0.31;86.30;95113.41;5013918;28;20499;-71
2024/02/22 03:05:08;;;;;;;11.40;6.60;;;;;;;0.20;87.79;95106.13;5013923;28;20034;-71
2024/02/22 03:07:34;;;;;;;12.15;5.47;;;;;;;0.18;87.60;95113.00;5030079;28;20026;-71
2024/02/22 03:09:59;;;;;;;8.20;4.80;;;;;;;-0.01;88.27;95106.03;5013865;28;20476;-71
2024/02/22 03:12:24;;;;;;;5.40;3.55;;;;;;;-0.07;88.88;95106.25;5013839;28;20037;-71
2024/02/22 03:14:50;;;;;;;6.05;3.42;;;;;;;-0.07;87.76;95080.72;5013606;28;20038;-71
2024/02/22 03:17:17;;;;;;;9.32;6.10;;;;;;;0.19;87.80;95112.94;4976923;28;20519;-71
2024/02/22 03:19:42;;;;;;;7.15;4.22;;;;;;;0.12;87.46;95087.69;4977874;28;20125;-71
2024/02/22 03:22:08;;;;;;;8.40;4.60;;;;;;;0.07;87.41;95107.47;5011555;28;20025;-71
2024/02/22 03:24:33;;;;;;;9.00;5.30;;;;;;;0.21;86.81;95102.69;5011788;28;20422;-71
2024/02/22 03:26:59;;;;;;;6.90;4.80;;;;;;;0.11;86.91;95097.09;5030198;28;20029;-71
2024/02/22 03:29:25;;;;;;;8.07;5.10;;;;;;;0.31;84.78;95111.66;4993974;28;20037;-71
2024/02/22 03:31:51;;;;;;;7.38;4.40;;;;;;;0.17;84.34;95112.19;5011413;28;20412;-71
2024/02/22 03:34:16;;;;;;;7.13;4.10;;;;;;;0.16;83.18;95096.91;5016775;28;20057;-71
2024/02/22 03:36:42;;;;;;;7.18;3.95;;;;;;;0.36;82.84;95112.34;5021383;28;20053;-71
2024/02/22 03:39:11;;;;;;;7.00;3.90;;;;;;;0.12;83.47;95095.38;4993658;28;20152;-71
2024/02/22 03:41:37;;;;;;;7.40;4.22;;;;;;;0.20;82.86;95109.50;4994298;28;20274;-71
2024/02/22 03:44:02;;;;;;;6.70;3.83;;;;;;;-0.19;84.71;95104.16;5018262;28;20415;-71
2024/02/22 03:46:28;;;;;;;9.20;4.90;;;;;;;-0.03;85.57;95109.53;5026388;28;20470;-71
2024/02/22 03:48:53;;;;;;;8.32;4.65;;;;;;;-0.24;85.08;95060.06;5026341;28;20034;-71
2024/02/22 03:51:18;;;;;;;6.45;3.90;;;;;;;-0.13;87.07;95105.66;4977501;28;20540;-71
2024/02/22 03:53:45;;;;;;;9.13;4.35;;;;;;;-0.20;87.12;95087.16;5028032;28;20029;-71
2024/02/22 03:56:11;;;;;;;8.65;4.32;;;;;;;-0.10;87.85;95101.25;5013173;28;20495;-71
2024/02/22 03:58:37;;;;;;;8.93;4.00;;;;;;;-0.14;88.03;95086.94;5013322;28;20420;-71
2024/02/22 04:01:03;;;;;;;7.38;3.80;;;;;;;0.16;87.41;95104.56;4995979;28;20029;-71
2024/02/22 04:03:28;;;;;;;5.30;3.08;;;;;;;0.03;87.00;95080.34;5029467;28;20040;-71
2024/02/22 04:05:54;;;;;;;5.68;3.50;;;;;;;0.34;86.15;95098.78;5022288;28;20495;-71
2024/02/22 04:08:19;;;;;;;6.60;3.47;;;;;;;0.24;86.95;95104.28;5011172;28;20033;-71
2024/02/22 04:10:45;;;;;;;9.20;4.18;;;;;;;0.24;87.49;95099.16;5028771;28;20030;-71
2024/02/22 04:13:11;;;;;;;10.43;5.63;;;;;;;0.12;87.20;95069.81;5027513;28;20030;-71
2024/02/22 04:15:37;;;;;;;10.15;5.50;;;;;;;0.24;87.09;95092.34;4995783;28;20059;-71
2024/02/22 04:18:02;;;;;;;8.43;4.60;;;;;;;0.27;87.12;95093.94;5012230;28;20025;-71
2024/02/22 04:20:28;;;;;;;6.90;3.97;;;;;;;0.28;86.78;95088.78;5011599;28;20033;-71
2024/02/22 04:22:53;;;;;;;9.80;4.50;;;;;;;0.30;86.86;95097.22;5017889;28;20038;-71
2024/02/22 04:25:19;;;;;;;7.22;4.65;;;;;;;0.36;87.03;95094.44;4960993;28;20034;-71
2024/02/22 04:27:44;;;;;;;8.38;4.32;;;;;;;0.30;86.59;95081.88;4999332;28;20034;-71
2024/02/22 04:30:11;;;;;;;6.93;3.90;;;;;;;0.54;85.21;95095.44;5012021;28;20040;-71
2024/02/22 04:32:36;;;;;;;9.90;6.07;;;;;;;-0.06;85.99;95059.38;5012623;28;20025;-71
2024/02/22 04:35:02;;;;;;;6.80;4.15;;;;;;;-0.10;86.87;95083.38;5012542;28;20041;-71
2024/02/22 04:37:27;;;;;;;8.02;4.43;;;;;;;0.14;86.52;95096.97;5008700;28;20030;-71
2024/02/22 04:39:52;;;;;;;8.07;4.78;;;;;;;0.09;85.85;95098.03;4999981;28;20036;-71
2024/02/22 04:42:18;;;;;;;9.88;5.25;;;;;;;0.14;85.80;95085.91;5014827;28;20033;-71
2024/02/22 04:44:46;;;;;;;9.93;4.57;;;;;;;0.24;85.79;95089.78;4996825;28;20455;-71
2024/02/22 04:47:12;;;;;;;9.30;5.80;;;;;;;0.35;85.34;95094.47;4982902;28;20037;-70
2024/02/22 04:49:38;;;;;;;17.35;9.60;;;;;;;-0.01;85.71;95049.00;4997880;28;20038;-71
2024/02/22 04:52:03;;;;;;;22.85;12.18;;;;;;;0.32;86.18;95080.09;4996211;28;20167;-71
2024/02/22 04:54:32;;;;;;;41.20;25.23;;;;;;;0.37;86.53;95101.19;5014258;28;20044;-71
2024/02/22 04:56:58;;;;;;;64.25;36.03;;;;;;;0.05;87.83;95089.63;5004675;28;20033;-71
2024/02/22 04:59:23;;;;;;;47.78;27.90;;;;;;;0.09;88.24;95088.66;5018157;28;20029;-71
2024/02/22 05:01:49;;;;;;;80.57;44.72;;;;;;;0.08;88.30;95089.50;5008692;28;20038;-70
2024/02/22 05:04:15;;;;;;;72.68;35.15;;;;;;;0.25;88.38;95096.53;4996540;28;20037;-71
2024/02/22 05:06:40;;;;;;;52.25;29.58;;;;;;;-0.04;88.10;95079.78;5013744;28;20427;-72
2024/02/22 05:09:05;;;;;;;51.50;26.95;;;;;;;-0.01;88.40;95093.25;5010422;28;20071;-71
2024/02/22 05:11:31;;;;;;;50.90;28.02;;;;;;;-0.12;89.10;95086.88;5009691;28;20403;-71
2024/02/22 05:13:57;;;;;;;42.58;24.35;;;;;;;-0.09;88.73;95108.03;5013172;28;20041;-71
2024/02/22 05:16:23;;;;;;;51.35;25.75;;;;;;;-0.09;89.19;95110.56;5012110;28;20465;-71
2024/02/22 05:18:48;;;;;;;66.75;30.80;;;;;;;-0.17;88.71;95094.69;5006421;28;20030;-72
2024/02/22 05:21:13;;;;;;;68.95;36.00;;;;;;;0.13;86.96;95097.03;5005231;28;20037;-71
2024/02/22 05:23:39;;;;;;;64.35;32.15;;;;;;;0.34;86.48;95093.66;5012674;28;20060;-71
2024/02/22 05:26:04;;;;;;;50.90;29.92;;;;;;;0.53;85.25;95098.03;5004383;28;20064;-71
2024/02/22 05:28:30;;;;;;;84.45;39.20;;;;;;;0.23;85.78;95085.56;5032875;28;20484;-71
2024/02/22 05:30:55;;;;;;;49.38;27.88;;;;;;;0.09;86.76;95116.75;5025583;28;20026;-71
2024/02/22 05:33:20;;;;;;;54.25;29.90;;;;;;;-0.07;86.65;95108.81;5012250;28;20029;-71
2024/02/22 05:35:46;;;;;;;71.82;41.95;;;;;;;-0.14;86.81;95122.72;5013048;28;20056;-71
2024/02/22 05:38:11;;;;;;;68.78;34.08;;;;;;;-0.23;87.26;95117.91;5015132;28;20049;-71
2024/02/22 05:40:38;;;;;;;80.90;42.70;;;;;;;-0.51;87.65;95118.06;5004652;28;20041;-71
2024/02/22 05:43:03;;;;;;;106.28;52.15;;;;;;;-0.58;88.14;95121.72;5008458;28;20033;-71
2024/02/22 05:45:41;;;;;;;70.93;33.85;;;;;;;-0.42;87.48;95116.91;4996998;28;20041;-70
2024/02/22 05:48:07;;;;;;;46.75;24.02;;;;;;;-0.52;86.77;95114.69;4996162;28;20027;-69
2024/02/22 05:50:33;;;;;;;51.58;26.40;;;;;;;-0.41;87.18;95128.78;4981096;28;20045;-70
2024/02/22 05:52:58;;;;;;;56.15;27.23;;;;;;;-0.57;87.97;95119.09;4996042;28;20025;-70
2024/02/22 05:55:23;;;;;;;57.38;25.23;;;;;;;-0.43;87.81;95116.06;4997535;28;20049;-70
2024/02/22 05:57:49;;;;;;;108.70;40.33;;;;;;;-0.52;88.64;95124.88;5029155;28;20029;-70
2024/02/22 06:00:15;;;;;;;68.45;30.35;;;;;;;-0.48;89.28;95123.03;5029873;28;20037;-69
2024/02/22 06:02:40;;;;;;;13.30;7.07;;;;;;;-0.30;88.83;95134.34;5026487;28;20025;-71
2024/02/22 06:05:07;;;;;;;17.77;8.27;;;;;;;-0.09;87.97;95133.56;4998867;28;20393;-70
2024/02/22 06:07:32;;;;;;;7.47;4.45;;;;;;;-0.13;88.70;95139.69;5011536;28;20044;-70
2024/02/22 06:09:58;;;;;;;17.80;9.50;;;;;;;-0.08;87.71;95121.66;5013401;28;20403;-70
2024/02/22 06:12:23;;;;;;;42.30;19.98;;;;;;;-0.03;87.34;95120.59;4996595;28;20512;-70
2024/02/22 06:14:49;;;;;;;60.95;28.75;;;;;;;0.27;86.53;95129.72;5030863;28;20033;-70
2024/02/22 06:17:14;;;;;;;55.88;27.42;;;;;;;0.02;87.72;95124.69;5013047;28;20518;-70
2024/02/22 06:19:39;;;;;;;66.07;32.65;;;;;;;0.04;88.46;95135.69;5010254;28;20513;-70
2024/02/22 06:22:05;;;;;;;111.65;48.75;;;;;;;0.03;88.81;95139.97;5022261;28;20033;-70
2024/02/22 06:24:30;;;;;;;103.28;51.60;;;;;;;0.04;88.78;95125.47;5030533;28;20507;-70
2024/02/22 06:26:56;;;;;;;84.65;37.83;;;;;;;-0.01;88.87;95123.91;5009945;28;20517;-71
2024/02/22 06:29:21;;;;;;;82.43;38.67;;;;;;;0.27;89.30;95134.84;5013753;28;20048;-70
2024/02/22 06:31:46;;;;;;;65.43;31.42;;;;;;;0.53;87.84;95128.72;5012119;28;20025;-71
2024/02/22 06:34:12;;;;;;;73.03;34.83;;;;;;;0.37;87.75;95126.75;5030806;28;20025;-71
2024/02/22 06:36:37;;;;;;;57.15;30.88;;;;;;;0.30;89.86;95139.81;5016073;28;20563;-71
2024/02/22 06:39:03;;;;;;;60.92;30.65;;;;;;;0.21;90.35;95134.16;5008614;28;20029;-71
2024/02/22 06:41:29;;;;;;;69.43;33.75;;;;;;;0.28;90.12;95139.91;5022640;28;20463;-71
2024/02/22 06:43:56;;;;;;;95.88;42.33;;;;;;;0.11;90.11;95111.56;4995894;28;20124;-71
2024/02/22 06:46:24;;;;;;;64.03;30.38;;;;;;;0.26;90.01;95140.84;4977748;28;20034;-70
2024/02/22 06:48:49;;;;;;;57.67;26.52;;;;;;;0.24;90.71;95127.28;4994922;28;20037;-71
2024/02/22 06:51:15;;;;;;;64.13;27.40;;;;;;;0.32;90.25;95131.22;5010369;28;20053;-72
2024/02/22 06:53:40;;;;;;;54.60;23.65;;;;;;;0.29;90.61;95133.88;5007275;28;20026;-71
2024/02/22 06:56:06;;;;;;;56.67;26.05;;;;;;;0.34;91.38;95136.28;5011982;28;20042;-71
2024/02/22 06:58:32;;;;;;;69.43;30.05;;;;;;;0.34;91.37;95133.72;5013862;28;20665;-70
2024/02/22 07:00:58;;;;;;;74.63;33.10;;;;;;;0.34;90.90;95128.63;4991893;28;20034;-71
2024/02/22 07:03:23;;;;;;;77.88;35.42;;;;;;;0.37;90.83;95138.72;4992330;28;20510;-71
2024/02/22 07:05:50;;;;;;;67.88;35.00;;;;;;;0.36;90.54;95094.44;5019083;28;20041;-71
2024/02/22 07:08:15;;;;;;;64.85;30.48;;;;;;;0.51;90.86;95131.34;4996532;28;20032;-71
2024/02/22 07:10:41;;;;;;;59.92;26.80;;;;;;;0.62;90.82;95129.22;5014203;28;20025;-71
2024/02/22 07:13:06;;;;;;;63.53;25.70;;;;;;;0.79;90.23;95128.53;5012995;28;20036;-71
2024/02/22 07:15:31;;;;;;;90.35;35.58;;;;;;;0.56;91.63;95109.00;4995381;28;20045;-70
2024/02/22 07:17:57;;;;;;;74.38;25.13;;;;;;;0.53;91.66;95115.94;5011591;28;20081;-71
2024/02/22 07:20:22;;;;;;;73.57;24.58;;;;;;;0.54;92.06;95120.19;5011591;28;20392;-71
2024/02/22 07:22:48;;;;;;;87.25;27.52;;;;;;;0.55;92.70;95120.09;5029286;28;20074;-72
2024/02/22 07:25:16;;;;;;;62.63;22.10;;;;;;;0.82;91.98;95104.56;5011430;28;20033;-71
2024/02/22 07:27:41;;;;;;;58.22;18.27;;;;;;;1.04;91.47;95120.72;4995944;28;20029;-71
2024/02/22 07:30:08;;;;;;;50.00;18.90;;;;;;;0.84;91.63;95118.97;5012479;28;20030;-71
2024/02/22 07:32:33;;;;;;;49.42;18.75;;;;;;;0.79;92.66;95120.88;4981372;28;20031;-71
2024/02/22 07:35:00;;;;;;;46.25;15.27;;;;;;;1.09;91.69;95108.56;5007923;28;20038;-71
2024/02/22 07:37:25;;;;;;;51.33;20.00;;;;;;;0.92;92.33;95122.94;5015024;28;20462;-70
2024/02/22 07:39:53;;;;;;;63.63;22.10;;;;;;;1.00;92.24;95108.09;4993743;28;20037;-71
2024/02/22 07:42:19;;;;;;;77.32;25.50;;;;;;;0.91;92.53;95113.59;5011225;28;20104;-71
2024/02/22 07:44:44;;;;;;;66.10;23.58;;;;;;;0.86;92.80;95119.75;4993800;28;20125;-71
2024/02/22 07:47:11;;;;;;;68.75;20.55;;;;;;;0.79;92.62;95097.03;4977468;28;20048;-70
2024/02/22 07:49:37;;;;;;;56.72;19.05;;;;;;;0.82;93.19;95102.00;4993711;28;20121;-71
2024/02/22 07:52:02;;;;;;;71.70;22.92;;;;;;;0.80;93.34;95091.00;4977429;28;20030;-70
2024/02/22 07:54:27;;;;;;;61.13;20.45;;;;;;;1.10;93.53;95104.28;4993531;28;20037;-71
2024/02/22 07:56:55;;;;;;;61.10;21.40;;;;;;;1.06;92.79;95100.19;5011121;28;20522;-71
2024/02/22 07:59:21;;;;;;;65.30;21.15;;;;;;;0.95;93.42;95100.63;4993451;28;20057;-70
2024/02/22 08:01:47;;;;;;;56.10;17.98;;;;;;;1.06;93.81;95110.44;5011124;28;20044;-71
2024/02/22 08:04:12;;;;;;;43.38;16.63;;;;;;;1.29;93.20;95117.16;5010999;28;20026;-70
2024/02/22 08:06:37;;;;;;;44.22;17.67;;;;;;;1.10;92.97;95114.50;4977306;28;20029;-71
2024/02/22 08:09:03;;;;;;;55.03;21.30;;;;;;;1.08;93.43;95106.06;4993469;28;20018;-71
2024/02/22 08:11:29;;;;;;;49.33;17.92;;;;;;;1.45;92.85;95119.88;4993516;28;20042;-71
2024/02/22 08:13:55;;;;;;;52.25;18.17;;;;;;;1.23;92.45;95107.19;5012693;28;20025;-71
2024/02/22 08:16:20;;;;;;;47.97;16.92;;;;;;;1.15;92.38;95104.94;5014880;28;20064;-71
2024/02/22 08:18:45;;;;;;;43.15;16.38;;;;;;;1.25;92.34;95124.09;4981110;28;20026;-71
2024/02/22 08:21:11;;;;;;;41.55;15.98;;;;;;;1.11;92.72;95131.53;4981295;28;20037;-71
2024/02/22 08:23:37;;;;;;;35.67;14.88;;;;;;;1.30;92.93;95131.59;4981084;28;20546;-71
2024/02/22 08:26:02;;;;;;;40.53;17.98;;;;;;;1.71;91.24;95131.59;4997387;28;20084;-70
2024/02/22 08:28:28;;;;;;;38.10;18.23;;;;;;;1.89;90.08;95125.66;4997337;28;20034;-70
2024/02/22 08:30:54;;;;;;;31.90;14.57;;;;;;;1.73;90.59;95129.81;4997291;28;20046;-71
2024/02/22 08:33:20;;;;;;;33.75;14.80;;;;;;;1.54;90.80;95119.50;4980892;28;20029;-71
2024/02/22 08:35:46;;;;;;;31.58;13.60;;;;;;;1.44;91.30;95124.19;4980640;28;20479;-70
2024/02/22 08:38:12;;;;;;;32.95;13.48;;;;;;;1.49;90.93;95131.69;4997141;28;20030;-71
2024/02/22 08:40:38;;;;;;;31.92;15.45;;;;;;;1.40;91.28;95129.50;4997286;28;20092;-71
2024/02/22 08:43:04;;;;;;;32.40;14.02;;;;;;;1.60;91.21;95134.63;4980875;28;20053;-71
2024/02/22 08:45:31;;;;;;;30.83;14.65;;;;;;;1.81;90.38;95132.00;4996942;28;20034;-71
2024/02/22 08:47:56;;;;;;;34.90;15.90;;;;;;;1.66;91.11;95128.41;4964546;28;20440;-70
2024/02/22 08:50:22;;;;;;;27.90;12.88;;;;;;;1.50;90.80;95128.22;4980606;28;20030;-70
2024/02/22 08:52:47;;;;;;;26.10;12.77;;;;;;;1.40;91.01;95116.72;4980577;28;20018;-70
2024/02/22 08:55:13;;;;;;;27.92;13.07;;;;;;;1.37;91.43;95106.59;4980666;28;20515;-71
2024/02/22 08:57:38;;;;;;;26.50;12.80;;;;;;;1.41;92.07;95115.81;4980526;28;20045;-71
2024/02/22 09:00:05;;;;;;;26.42;15.25;;;;;;;1.49;91.73;95114.56;4980384;28;20042;-71
2024/02/22 09:02:31;;;;;;;39.00;19.08;;;;;;;1.59;91.65;95130.41;4980562;28;20040;-71
2024/02/22 09:04:57;;;;;;;27.70;14.35;;;;;;;1.71;91.78;95118.78;4980362;28;20109;-71
2024/02/22 09:07:24;;;;;;;27.50;14.68;;;;;;;1.63;91.65;95114.00;5014045;28;20044;-71
2024/02/22 09:09:49;;;;;;;33.97;16.52;;;;;;;1.53;91.54;95108.44;4996732;28;20042;-70
2024/02/22 09:12:15;;;;;;;32.80;17.15;;;;;;;1.62;92.27;95111.50;5013985;28;20038;-70
2024/02/22 09:14:40;;;;;;;34.35;17.95;;;;;;;1.61;91.89;95112.38;4996378;28;20492;-70
2024/02/22 09:17:06;;;;;;;30.45;16.52;;;;;;;1.57;92.01;95114.25;4980107;28;20061;-70
2024/02/22 09:19:31;;;;;;;34.78;16.17;;;;;;;1.59;91.85;95109.06;4979914;28;20045;-70
2024/02/22 09:22:00;;;;;;;31.45;17.55;;;;;;;1.53;91.81;95097.34;5013832;28;20085;-70
2024/02/22 09:24:31;;;;;;;30.88;15.50;;;;;;;1.46;91.64;95095.97;5013552;28;20487;-70
2024/02/22 09:26:57;;;;;;;36.88;17.73;;;;;;;2.13;89.68;95110.94;4981261;28;20113;-71
2024/02/22 09:29:26;;;;;;;34.42;16.58;;;;;;;1.94;90.19;95110.91;4979870;28;20037;-71
2024/02/22 09:31:55;;;;;;;24.33;13.82;;;;;;;1.88;90.53;95108.63;4980060;28;20022;-70
2024/02/22 09:34:21;;;;;;;29.10;16.60;;;;;;;1.79;91.12;95104.75;5013469;28;20034;-71
2024/02/22 09:36:47;;;;;;;27.70;14.85;;;;;;;2.11;90.75;95111.91;4995871;28;20045;-70
2024/02/22 09:39:12;;;;;;;25.77;16.00;;;;;;;2.19;89.68;95109.81;5013460;28;20455;-70
2024/02/22 09:41:38;;;;;;;26.30;14.70;;;;;;;2.10;89.28;95105.13;4995895;28;20030;-71
2024/02/22 09:44:04;;;;;;;25.83;14.48;;;;;;;1.86;89.91;95101.91;4995992;28;20026;-71
2024/02/22 09:46:29;;;;;;;22.38;14.50;;;;;;;2.15;88.42;95093.75;4979561;28;20088;-71
2024/02/22 09:48:54;;;;;;;24.23;14.98;;;;;;;2.39;88.39;95090.97;4979619;28;20052;-70
2024/02/22 09:51:21;;;;;;;26.75;15.82;;;;;;;2.42;88.14;95101.06;4995893;28;20038;-71
2024/02/22 09:53:47;;;;;;;31.27;16.75;;;;;;;2.23;88.62;95099.38;4979909;28;20037;-70
2024/02/22 09:56:16;;;;;;;27.25;16.52;;;;;;;2.52;87.80;95068.16;4995611;28;20041;-70
2024/02/22 09:58:45;;;;;;;26.15;16.67;;;;;;;2.99;86.55;95072.72;4979474;28;20061;-71
2024/02/22 10:01:11;;;;;;;30.15;16.60;;;;;;;2.86;86.23;95067.34;5013450;28;20030;-70
2024/02/22 10:03:37;;;;;;;21.52;13.52;;;;;;;3.00;86.21;95074.38;5013026;28;20030;-70
2024/02/22 10:06:03;;;;;;;23.77;15.23;;;;;;;2.93;86.06;95076.44;4995761;28;20088;-71
2024/02/22 10:08:29;;;;;;;24.95;14.93;;;;;;;2.56;86.39;95034.56;4995479;28;20044;-70
2024/02/22 10:11:07;;;;;;;23.55;13.68;;;;;;;2.57;86.66;95061.06;5013222;28;20040;-70
2024/02/22 10:13:34;;;;;;;24.30;14.70;;;;;;;2.72;86.44;95038.97;4995852;28;20026;-70
2024/02/22 10:16:10;;;;;;;23.65;14.38;;;;;;;2.82;86.94;95055.59;4979115;28;20431;-70
2024/02/22 10:18:36;;;;;;;24.08;15.25;;;;;;;3.07;85.50;95032.13;4995426;28;20449;-71
2024/02/22 10:21:14;;;;;;;26.10;16.10;;;;;;;2.75;86.48;95033.69;4995454;28;20062;-71
2024/02/22 10:23:40;;;;;;;24.83;15.55;;;;;;;2.54;86.66;95022.75;4995790;28;20488;-70
2024/02/22 10:26:05;;;;;;;23.45;15.13;;;;;;;2.80;86.48;95027.44;4978909;28;20092;-71
2024/02/22 10:28:31;;;;;;;28.13;16.80;;;;;;;2.69;86.56;95025.38;5012811;28;20030;-70
2024/02/22 10:31:03;;;;;;;25.55;15.20;;;;;;;2.90;85.97;95022.69;4995079;28;20034;-70
2024/02/22 10:33:32;;;;;;;26.00;16.20;;;;;;;2.90;86.28;95023.50;4994971;28;20022;-71
2024/02/22 10:36:01;;;;;;;29.15;17.23;;;;;;;3.14;86.43;95018.88;4977840;28;20057;-71
2024/02/22 10:38:27;;;;;;;27.98;17.00;;;;;;;3.04;85.95;94998.91;5012339;28;20471;-71
2024/02/22 10:40:53;;;;;;;26.33;16.52;;;;;;;3.03;85.97;95004.94;4978906;28;20038;-71
2024/02/22 10:43:18;;;;;;;25.70;16.85;;;;;;;3.12;86.05;94986.47;4978638;28;20072;-71
2024/02/22 10:45:43;;;;;;;26.10;16.70;;;;;;;3.28;84.88;94989.09;4962484;28;20428;-70
2024/02/22 10:48:09;;;;;;;28.35;18.17;;;;;;;3.04;85.88;95001.47;4962549;28;20412;-71
2024/02/22 10:50:34;;;;;;;31.42;17.52;;;;;;;3.02;86.27;94986.13;4978542;28;20041;-70
2024/02/22 10:53:02;;;;;;;29.30;16.88;;;;;;;3.13;85.04;94972.75;4996202;28;20065;-71
2024/02/22 10:55:27;;;;;;;28.67;17.55;;;;;;;3.20;85.15;94980.97;5002969;28;20041;-71
2024/02/22 10:57:53;;;;;;;31.00;18.48;;;;;;;3.28;85.06;94969.38;4997807;28;20029;-71
2024/02/22 11:00:18;;;;;;;29.73;18.13;;;;;;;3.26;85.07;94968.66;4984320;28;20416;-71
2024/02/22 11:02:44;;;;;;;34.70;18.70;;;;;;;3.25;85.54;94971.28;4977085;28;20501;-71
2024/02/22 11:05:11;;;;;;;32.58;17.60;;;;;;;3.39;84.20;94938.00;4976120;28;20036;-71
2024/02/22 11:08:03;;;;;;;34.22;18.92;;;;;;;3.37;83.92;94955.25;4992817;28;20515;-72
2024/02/22 11:10:29;;;;;;;26.30;16.65;;;;;;;3.34;84.10;94934.84;4991985;28;20425;-71
2024/02/22 11:13:01;;;;;;;28.90;16.83;;;;;;;3.51;83.65;94952.81;4978024;28;20037;-71
2024/02/22 11:15:30;;;;;;;25.80;17.13;;;;;;;3.56;83.25;94945.66;4977984;28;20117;-71
2024/02/22 11:17:56;;;;;;;26.75;16.23;;;;;;;3.39;83.71;94912.34;4977987;28;20034;-71
2024/02/22 11:20:32;;;;;;;30.52;16.58;;;;;;;3.70;82.90;94926.94;4994151;28;20037;-71
2024/02/22 11:22:58;;;;;;;30.67;18.55;;;;;;;3.65;83.26;94925.53;5012130;28;20026;-72
2024/02/22 11:25:23;;;;;;;31.52;18.70;;;;;;;3.76;82.47;94925.78;4977858;28;20555;-71
2024/02/22 11:28:01;;;;;;;36.13;20.70;;;;;;;3.74;82.68;94913.03;4977770;28;20088;-71